Terminal Aerodrome Forecast
Issued by NWS Atlanta, GA

Home | Current Version | Previous Version | Text Only | Print | Product List | Glossary On
Versions: 1 2 3 4 5 6 7 8 9 10 11 12
000
FTUS42 KFFC 040521
TAFCSG
TAF
KCSG 040521Z 0406/0506 00000KT P6SM SKC
     FM041600 16005KT P6SM FEW050
     FM050000 00000KT P6SM FEW240=

USA.gov is the U.S. government's official web portal to all federal, state and local government web resources and services.